createdAt,value
2019-04-07T00:01:18.513Z,88.27
2019-04-07T00:03:51.672Z,88.63
2019-04-07T00:06:24.464Z,88.55
2019-04-07T00:08:57.586Z,89.78
2019-04-07T00:11:28.932Z,88.80
2019-04-07T00:14:01.375Z,89.03
2019-04-07T00:16:35.165Z,90.36
2019-04-07T00:19:08.835Z,89.58
2019-04-07T00:21:42.398Z,89.69
2019-04-07T00:24:16.612Z,89.29
2019-04-07T00:26:51.252Z,90.00
2019-04-07T00:29:25.337Z,90.26
2019-04-07T00:31:59.136Z,89.16
2019-04-07T00:34:32.198Z,88.85
2019-04-07T00:37:05.670Z,90.67
2019-04-07T00:39:39.682Z,90.76
2019-04-07T00:42:13.576Z,88.77
2019-04-07T00:44:47.476Z,89.67
2019-04-07T00:47:21.893Z,89.99
2019-04-07T00:49:55.610Z,88.94
2019-04-07T00:52:29.475Z,90.21
2019-04-07T00:55:03.440Z,89.22
2019-04-07T00:57:37.468Z,88.99
2019-04-07T01:00:12.386Z,89.31
2019-04-07T01:02:46.539Z,89.81
2019-04-07T01:05:20.538Z,88.60
2019-04-07T01:07:55.230Z,88.13
2019-04-07T01:10:28.905Z,87.77
2019-04-07T01:13:04.418Z,88.37
2019-04-07T01:15:37.263Z,90.12
2019-04-07T01:18:10.053Z,90.91
2019-04-07T01:20:45.180Z,91.01
2019-04-07T01:23:19.221Z,90.04
2019-04-07T01:25:52.876Z,91.30
2019-04-07T01:28:24.228Z,90.49
2019-04-07T01:30:57.866Z,91.79
2019-04-07T01:33:32.330Z,91.95
2019-04-07T01:36:05.933Z,91.32
2019-04-07T01:38:38.578Z,92.74
2019-04-07T01:41:23.969Z,93.05
2019-04-07T01:44:15.523Z,94.01
2019-04-07T01:47:11.347Z,92.35
2019-04-07T01:50:10.149Z,93.25
2019-04-07T01:53:08.866Z,93.50
2019-04-07T01:55:56.473Z,94.73
2019-04-07T01:58:48.203Z,94.12
2019-04-07T02:01:31.208Z,95.21
2019-04-07T02:04:15.765Z,95.70
2019-04-07T02:07:13.429Z,95.08
2019-04-07T02:10:24.192Z,96.34
2019-04-07T02:13:14.969Z,95.33
2019-04-07T02:16:24.748Z,97.99
2019-04-07T02:19:06.243Z,96.70
2019-04-07T02:21:58.266Z,96.60
2019-04-07T02:24:42.244Z,95.51
2019-04-07T02:27:37.565Z,96.82
2019-04-07T02:30:29.051Z,98.35
2019-04-07T02:33:19.954Z,97.29
2019-04-07T02:36:17.861Z,96.09
2019-04-07T02:39:13.126Z,97.37
2019-04-07T02:42:15.281Z,97.18
2019-04-07T02:45:00.004Z,97.94
2019-04-07T02:47:54.906Z,97.10
2019-04-07T02:50:52.917Z,98.11
2019-04-07T02:53:39.172Z,98.86
2019-04-07T02:56:32.548Z,99.81
2019-04-07T02:59:14.568Z,98.43
2019-04-07T03:02:12.970Z,99.28
2019-04-07T03:05:04.810Z,99.31
2019-04-07T03:08:10.241Z,100.00
2019-04-07T03:11:05.657Z,100.00
2019-04-07T03:13:52.221Z,100.00
2019-04-07T03:16:53.461Z,100.00
2019-04-07T03:19:31.884Z,100.00
2019-04-07T03:22:13.232Z,100.00
2019-04-07T03:24:56.994Z,100.00
2019-04-07T03:28:04.736Z,100.00
2019-04-07T03:30:58.455Z,100.00
2019-04-07T03:33:56.462Z,100.00
2019-04-07T03:37:13.529Z,100.00
2019-04-07T03:39:51.287Z,100.00
2019-04-07T03:42:34.719Z,100.00
2019-04-07T03:45:27.099Z,100.00
2019-04-07T03:48:10.286Z,100.00
2019-04-07T03:50:52.798Z,100.00
2019-04-07T03:53:39.863Z,100.00
2019-04-07T03:56:21.003Z,100.00
2019-04-07T03:59:16.832Z,100.00
2019-04-07T04:02:14.229Z,100.00
2019-04-07T04:05:05.163Z,100.00
2019-04-07T04:07:47.477Z,100.00
2019-04-07T04:10:36.542Z,100.00
2019-04-07T04:13:38.136Z,100.00
2019-04-07T04:16:15.226Z,100.00
2019-04-07T04:18:48.839Z,100.00
2019-04-07T04:21:20.245Z,100.00
2019-04-07T04:23:53.336Z,100.00
2019-04-07T04:26:27.022Z,100.00
2019-04-07T04:28:59.832Z,100.00
2019-04-07T04:31:33.770Z,100.00
2019-04-07T04:34:07.863Z,100.00
2019-04-07T04:36:41.650Z,100.00
2019-04-07T04:39:18.587Z,100.00
2019-04-07T04:41:50.863Z,100.00
2019-04-07T04:44:25.668Z,100.00
2019-04-07T04:47:01.251Z,100.00
2019-04-07T04:49:35.454Z,100.00
2019-04-07T04:52:09.684Z,100.00
2019-04-07T04:54:43.619Z,100.00
2019-04-07T04:57:17.742Z,100.00
2019-04-07T04:59:52.685Z,100.00
2019-04-07T05:02:27.524Z,100.00
2019-04-07T05:05:02.450Z,100.00
2019-04-07T05:07:47.896Z,100.00
2019-04-07T05:10:10.735Z,100.00
2019-04-07T05:12:45.050Z,100.00
2019-04-07T05:15:18.624Z,100.00
2019-04-07T05:17:50.698Z,100.00
2019-04-07T05:20:24.025Z,100.00
2019-04-07T05:22:57.605Z,100.00
2019-04-07T05:25:31.480Z,100.00
2019-04-07T05:28:04.984Z,100.00
2019-04-07T05:30:39.167Z,100.00
2019-04-07T05:33:12.278Z,100.00
2019-04-07T05:35:45.752Z,100.00
2019-04-07T05:38:21.261Z,100.00
2019-04-07T05:40:55.354Z,100.00
2019-04-07T05:43:29.612Z,100.00
2019-04-07T05:46:05.899Z,100.00
2019-04-07T05:48:39.170Z,100.00
2019-04-07T05:51:13.398Z,100.00
2019-04-07T05:53:48.328Z,100.00
2019-04-07T05:56:25.989Z,100.00
2019-04-07T05:58:58.117Z,100.00
2019-04-07T06:01:33.390Z,100.00
2019-04-07T06:04:08.832Z,100.00
2019-04-07T06:06:43.121Z,100.00
2019-04-07T06:09:19.024Z,100.00
2019-04-07T06:11:52.263Z,100.00
2019-04-07T06:14:26.778Z,100.00
2019-04-07T06:17:00.933Z,100.00
2019-04-07T06:19:39.809Z,100.00
2019-04-07T06:22:11.075Z,100.00
2019-04-07T06:24:44.831Z,100.00
2019-04-07T06:27:18.775Z,100.00
2019-04-07T06:29:57.189Z,100.00
2019-04-07T06:32:27.492Z,100.00
2019-04-07T06:35:01.840Z,100.00
2019-04-07T06:37:36.327Z,100.00
2019-04-07T06:40:11.163Z,100.00
2019-04-07T06:42:45.693Z,100.00
2019-04-07T06:45:23.398Z,100.00
2019-04-07T06:48:01.660Z,100.00
2019-04-07T06:51:03.894Z,99.96
2019-04-07T06:54:06.020Z,98.92
2019-04-07T06:57:04.343Z,98.20
2019-04-07T06:59:52.829Z,96.94
2019-04-07T07:02:40.696Z,94.60
2019-04-07T07:05:35.401Z,93.73
2019-04-07T07:08:22.002Z,92.73
2019-04-07T07:11:24.468Z,90.27
2019-04-07T07:14:09.565Z,89.84
2019-04-07T07:17:06.399Z,88.62
2019-04-07T07:20:04.266Z,87.08
2019-04-07T07:22:49.711Z,86.80
2019-04-07T07:25:23.512Z,85.84
2019-04-07T07:28:00.036Z,85.32
2019-04-07T07:30:35.960Z,82.69
2019-04-07T07:33:13.586Z,82.28
2019-04-07T07:35:52.680Z,82.05
2019-04-07T07:38:31.077Z,81.15
2019-04-07T07:41:08.841Z,80.33
2019-04-07T07:43:48.548Z,79.21
2019-04-07T07:46:27.864Z,79.71
2019-04-07T07:49:02.190Z,78.01
2019-04-07T07:51:38.630Z,78.47
2019-04-07T07:54:16.180Z,78.60
2019-04-07T07:56:51.635Z,78.87
2019-04-07T07:59:38.442Z,76.34
2019-04-07T08:02:14.628Z,77.89
2019-04-07T08:04:48.828Z,76.54
2019-04-07T08:07:31.212Z,74.43
2019-04-07T08:10:29.063Z,74.03
2019-04-07T08:13:07.444Z,73.75
2019-04-07T08:15:46.963Z,73.40
2019-04-07T08:18:30.836Z,72.86
2019-04-07T08:21:21.406Z,72.79
2019-04-07T08:24:06.813Z,71.15
2019-04-07T08:26:42.134Z,69.53
2019-04-07T08:29:16.907Z,68.65
2019-04-07T08:31:52.633Z,67.48
2019-04-07T08:34:32.846Z,67.72
2019-04-07T08:37:06.042Z,66.79
2019-04-07T08:39:39.713Z,66.70
2019-04-07T08:42:18.612Z,65.09
2019-04-07T08:44:49.782Z,64.13
2019-04-07T08:47:23.430Z,62.76
2019-04-07T08:49:57.907Z,63.71
2019-04-07T08:52:31.622Z,62.81
2019-04-07T08:55:06.096Z,61.80
2019-04-07T08:57:40.118Z,61.11
2019-04-07T09:00:18.895Z,61.27
2019-04-07T09:03:01.687Z,60.32
2019-04-07T09:05:31.010Z,60.15
2019-04-07T09:08:06.043Z,59.55
2019-04-07T09:10:44.129Z,58.57
2019-04-07T09:13:18.414Z,58.21
2019-04-07T09:15:58.996Z,58.15
2019-04-07T09:19:01.837Z,57.85
2019-04-07T09:21:51.347Z,58.03
2019-04-07T09:24:39.777Z,57.06
2019-04-07T09:27:25.780Z,56.30
2019-04-07T09:30:17.822Z,56.47
2019-04-07T09:33:06.037Z,56.26
2019-04-07T09:36:07.993Z,55.82
2019-04-07T09:39:15.658Z,55.35
2019-04-07T09:42:07.808Z,54.84
2019-04-07T09:44:59.087Z,54.14
2019-04-07T09:48:00.631Z,53.70
2019-04-07T09:50:44.460Z,53.35
2019-04-07T09:53:40.314Z,52.50
2019-04-07T09:56:21.805Z,53.85
2019-04-07T09:59:19.259Z,51.71
2019-04-07T10:02:09.283Z,51.40
2019-04-07T10:05:04.570Z,50.96
2019-04-07T10:07:54.703Z,50.88
2019-04-07T10:10:37.150Z,51.16
2019-04-07T10:13:28.628Z,51.46
2019-04-07T10:16:27.031Z,50.97
2019-04-07T10:19:10.982Z,50.56
2019-04-07T10:22:15.183Z,49.25
2019-04-07T10:25:25.243Z,48.90
2019-04-07T10:28:23.376Z,50.87
2019-04-07T10:31:24.617Z,49.38
2019-04-07T10:34:27.186Z,49.21
2019-04-07T10:37:08.132Z,48.54
2019-04-07T10:40:02.778Z,47.51
2019-04-07T10:42:55.528Z,47.93
2019-04-07T10:45:47.022Z,48.10
2019-04-07T10:48:45.646Z,47.76
2019-04-07T10:51:30.881Z,48.14
2019-04-07T10:54:25.266Z,47.76
2019-04-07T10:57:14.333Z,46.48
2019-04-07T11:00:09.030Z,46.23
2019-04-07T11:03:06.678Z,47.20
2019-04-07T11:06:04.020Z,47.52
2019-04-07T11:09:05.982Z,46.23
2019-04-07T11:11:49.384Z,47.23
2019-04-07T11:15:00.897Z,45.40
2019-04-07T11:17:58.341Z,45.64
2019-04-07T11:20:40.855Z,45.13
2019-04-07T11:23:21.745Z,44.88
2019-04-07T11:26:12.471Z,47.35
2019-04-07T11:28:59.389Z,45.52
2019-04-07T11:31:37.321Z,45.39
2019-04-07T11:34:24.778Z,45.96
2019-04-07T11:37:12.028Z,45.79
2019-04-07T11:39:57.785Z,45.30
2019-04-07T11:42:50.780Z,45.72
2019-04-07T11:45:54.179Z,45.50
2019-04-07T11:48:27.561Z,44.15
2019-04-07T11:51:13.009Z,45.15
2019-04-07T11:53:57.766Z,44.29
2019-04-07T11:57:06.297Z,44.88
2019-04-07T12:00:08.649Z,44.69
2019-04-07T12:02:53.306Z,44.29
2019-04-07T12:05:46.339Z,45.41
2019-04-07T12:08:37.774Z,44.60
2019-04-07T12:11:24.666Z,43.78
2019-04-07T12:14:17.832Z,44.84
2019-04-07T12:17:13.785Z,45.17
2019-04-07T12:19:57.169Z,44.62
2019-04-07T12:22:42.593Z,46.05
2019-04-07T12:25:34.654Z,45.14
2019-04-07T12:28:34.375Z,45.78
2019-04-07T12:31:14.687Z,46.69
2019-04-07T12:34:26.518Z,45.65
2019-04-07T12:37:18.882Z,44.24
2019-04-07T12:40:22.327Z,44.91
2019-04-07T12:43:18.901Z,44.10
2019-04-07T12:46:01.263Z,43.32
2019-04-07T12:48:51.455Z,43.64
2019-04-07T12:51:40.945Z,43.76
2019-04-07T12:54:39.624Z,42.78
2019-04-07T12:57:30.560Z,44.32
2019-04-07T13:00:15.736Z,44.47
2019-04-07T13:03:18.152Z,43.43
2019-04-07T13:05:57.436Z,42.11
2019-04-07T13:08:36.810Z,44.91
2019-04-07T13:11:31.181Z,43.09
2019-04-07T13:14:25.675Z,42.27
2019-04-07T13:17:16.033Z,41.79
2019-04-07T13:19:59.093Z,41.34
2019-04-07T13:22:48.725Z,41.39
2019-04-07T13:25:58.998Z,42.59
2019-04-07T13:28:53.270Z,44.39
2019-04-07T13:31:38.458Z,45.98
2019-04-07T13:34:31.066Z,45.51
2019-04-07T13:37:22.053Z,43.70
2019-04-07T13:40:15.911Z,43.44
2019-04-07T13:43:04.253Z,44.14
2019-04-07T13:45:55.736Z,42.45
2019-04-07T13:48:52.168Z,40.79
2019-04-07T13:51:45.656Z,42.06
2019-04-07T13:54:34.749Z,43.28
2019-04-07T13:57:37.080Z,45.09
2019-04-07T14:00:37.092Z,44.91
2019-04-07T14:03:25.121Z,44.73
2019-04-07T14:06:23.709Z,43.33
2019-04-07T14:09:19.279Z,43.37
2019-04-07T14:12:15.485Z,43.32
2019-04-07T14:15:07.751Z,44.50
2019-04-07T14:17:50.898Z,43.50
2019-04-07T14:20:35.450Z,43.10
2019-04-07T14:23:22.515Z,43.21
2019-04-07T14:26:07.861Z,43.22
2019-04-07T14:28:59.910Z,42.01
2019-04-07T14:32:00.983Z,43.97
2019-04-07T14:34:52.998Z,42.89
2019-04-07T14:37:41.866Z,41.38
2019-04-07T14:40:29.152Z,41.15
2019-04-07T14:43:09.600Z,41.55
2019-04-07T14:45:53.498Z,41.43
2019-04-07T14:48:45.956Z,43.06
2019-04-07T14:51:53.679Z,43.18
2019-04-07T14:54:44.971Z,42.77
2019-04-07T14:57:26.092Z,42.85
2019-04-07T15:00:25.549Z,43.30
2019-04-07T15:03:00.947Z,41.97
2019-04-07T15:05:39.754Z,44.10
2019-04-07T15:12:14.708Z,42.40
2019-04-07T15:14:41.575Z,40.91
2019-04-07T15:17:15.298Z,41.73
2019-04-07T15:19:49.242Z,42.53
2019-04-07T15:22:28.747Z,43.90
2019-04-07T15:24:59.363Z,41.54
2019-04-07T15:27:36.903Z,42.22
2019-04-07T15:30:25.433Z,42.90
2019-04-07T15:33:02.405Z,41.81
2019-04-07T15:35:35.228Z,42.19
2019-04-07T15:38:09.825Z,41.69
2019-04-07T15:40:44.767Z,40.34
2019-04-07T15:43:19.622Z,42.05
2019-04-07T15:45:52.489Z,41.99
2019-04-07T15:48:27.114Z,43.12
2019-04-07T15:51:04.644Z,41.61
2019-04-07T15:53:44.594Z,42.71
2019-04-07T15:56:18.832Z,43.93
2019-04-07T15:58:52.933Z,44.39
2019-04-07T16:01:28.222Z,44.22
2019-04-07T16:04:02.604Z,44.44
2019-04-07T16:06:38.702Z,45.27
2019-04-07T16:09:31.410Z,45.78
2019-04-07T16:11:53.309Z,46.19
2019-04-07T16:14:27.437Z,46.09
2019-04-07T16:17:04.127Z,46.35
2019-04-07T16:19:41.533Z,46.31
2019-04-07T16:22:13.386Z,46.75
2019-04-07T16:24:47.403Z,46.46
2019-04-07T16:27:21.551Z,46.15
2019-04-07T16:30:01.094Z,47.80
2019-04-07T16:32:42.547Z,48.20
2019-04-07T16:35:16.608Z,49.08
2019-04-07T16:37:58.421Z,49.51
2019-04-07T16:40:33.902Z,49.91
2019-04-07T16:43:15.077Z,50.19
2019-04-07T16:45:45.901Z,49.45
2019-04-07T16:48:20.941Z,49.52
2019-04-07T16:50:55.445Z,50.04
2019-04-07T16:53:30.869Z,50.30
2019-04-07T16:56:04.110Z,50.57
2019-04-07T16:58:39.937Z,50.50
2019-04-07T17:01:15.929Z,50.66
2019-04-07T17:03:49.925Z,51.42
2019-04-07T17:06:25.104Z,51.01
2019-04-07T17:09:00.429Z,50.91
2019-04-07T17:11:38.828Z,50.62
2019-04-07T17:14:15.178Z,51.89
2019-04-07T17:16:50.387Z,51.88
2019-04-07T17:19:26.630Z,52.46
2019-04-07T17:22:01.688Z,52.40
2019-04-07T17:24:36.459Z,53.05
2019-04-07T17:27:11.731Z,53.45
2019-04-07T17:29:49.103Z,53.33
2019-04-07T17:32:23.144Z,53.45
2019-04-07T17:34:57.377Z,54.26
2019-04-07T17:37:31.948Z,54.37
2019-04-07T17:40:14.352Z,54.65
2019-04-07T17:42:50.916Z,54.73
2019-04-07T17:45:55.981Z,54.62
2019-04-07T17:48:47.602Z,55.06
2019-04-07T17:51:27.592Z,55.08
2019-04-07T17:54:23.031Z,55.40
2019-04-07T17:57:25.751Z,55.92
2019-04-07T18:00:19.343Z,56.28
2019-04-07T18:03:21.596Z,56.23
2019-04-07T18:06:07.394Z,56.71
2019-04-07T18:09:03.979Z,57.20
2019-04-07T18:11:47.207Z,57.50
2019-04-07T18:14:45.805Z,57.97
2019-04-07T18:17:34.422Z,58.05
2019-04-07T18:20:41.380Z,58.56
2019-04-07T18:23:26.345Z,58.91
2019-04-07T18:26:13.046Z,59.38
2019-04-07T18:29:04.506Z,59.79
2019-04-07T18:31:56.683Z,59.87
2019-04-07T18:34:43.059Z,60.21
2019-04-07T18:37:39.724Z,60.70
2019-04-07T18:40:30.691Z,61.19
2019-04-07T18:43:35.733Z,61.36
2019-04-07T18:46:25.362Z,61.18
2019-04-07T18:49:18.049Z,61.83
2019-04-07T18:52:22.654Z,62.04
2019-04-07T18:55:18.193Z,62.89
2019-04-07T18:58:22.777Z,63.01
2019-04-07T19:01:30.488Z,62.96
2019-04-07T19:04:28.141Z,63.50
2019-04-07T19:07:10.040Z,63.84
2019-04-07T19:10:07.227Z,64.16
2019-04-07T19:13:05.629Z,64.29
2019-04-07T19:15:55.606Z,64.10
2019-04-07T19:19:00.502Z,64.35
2019-04-07T19:22:00.509Z,64.32
2019-04-07T19:24:47.607Z,64.62
2019-04-07T19:27:40.617Z,64.51
2019-04-07T19:30:29.827Z,64.63
2019-04-07T19:33:24.056Z,64.63
2019-04-07T19:36:17.530Z,64.72
2019-04-07T19:39:15.160Z,64.68
2019-04-07T19:42:01.389Z,65.18
2019-04-07T19:44:59.533Z,65.49
2019-04-07T19:47:54.947Z,65.17
2019-04-07T19:50:58.639Z,65.79
2019-04-07T19:54:04.327Z,66.08
2019-04-07T19:56:48.814Z,66.08
2019-04-07T19:59:44.282Z,66.19
2019-04-07T20:02:40.470Z,65.90
2019-04-07T20:05:40.859Z,66.48
2019-04-07T20:08:45.918Z,67.31
2019-04-07T20:11:43.746Z,67.66
2019-04-07T20:14:46.551Z,68.27
2019-04-07T20:17:40.924Z,67.52
2019-04-07T20:20:30.236Z,66.69
2019-04-07T20:23:27.773Z,68.42
2019-04-07T20:26:22.744Z,69.29
2019-04-07T20:29:22.374Z,70.25
2019-04-07T20:32:26.103Z,70.61
2019-04-07T20:35:18.706Z,71.08
2019-04-07T20:38:10.550Z,70.29
2019-04-07T20:41:00.960Z,70.96
2019-04-07T20:43:57.371Z,71.41
2019-04-07T20:46:59.032Z,71.40
2019-04-07T20:49:40.407Z,72.17
2019-04-07T20:52:36.201Z,71.95
2019-04-07T20:55:42.699Z,72.25
2019-04-07T20:58:47.269Z,71.88
2019-04-07T21:01:42.960Z,71.95
2019-04-07T21:04:41.742Z,72.35
2019-04-07T21:07:31.250Z,71.87
2019-04-07T21:10:16.124Z,73.26
2019-04-07T21:13:09.658Z,73.19
2019-04-07T21:16:01.543Z,72.29
2019-04-07T21:19:04.165Z,72.07
2019-04-07T21:21:54.180Z,72.65
2019-04-07T21:24:51.738Z,71.88
2019-04-07T21:27:47.793Z,72.48
2019-04-07T21:30:36.703Z,73.37
2019-04-07T21:33:26.972Z,71.88
2019-04-07T21:36:14.223Z,72.50
2019-04-07T21:39:13.027Z,72.79
2019-04-07T21:42:22.249Z,72.82
2019-04-07T21:45:32.378Z,72.58
2019-04-07T21:48:18.550Z,72.38
2019-04-07T21:51:10.722Z,72.10
2019-04-07T21:53:50.415Z,71.58
2019-04-07T21:56:48.452Z,73.12
2019-04-07T21:59:36.190Z,72.66
2019-04-07T22:02:29.259Z,72.65
2019-04-07T22:05:24.011Z,72.25
2019-04-07T22:08:10.932Z,72.17
2019-04-07T22:10:40.245Z,72.18
2019-04-07T22:13:12.627Z,72.47
2019-04-07T22:15:49.316Z,72.76
2019-04-07T22:18:20.457Z,72.32
2019-04-07T22:20:55.538Z,72.82
2019-04-07T22:23:29.973Z,72.71
2019-04-07T22:26:10.671Z,72.05
2019-04-07T22:28:41.478Z,72.27
2019-04-07T22:31:19.091Z,73.81
2019-04-07T22:33:57.417Z,73.53
2019-04-07T22:36:29.529Z,71.26
2019-04-07T22:39:05.818Z,72.24
2019-04-07T22:41:41.784Z,74.30
2019-04-07T22:44:15.602Z,74.19
2019-04-07T22:46:52.107Z,75.30
2019-04-07T22:49:28.478Z,74.58
2019-04-07T22:52:01.270Z,73.95
2019-04-07T22:54:35.068Z,73.86
2019-04-07T22:57:12.786Z,76.53
2019-04-07T22:59:44.596Z,77.00
2019-04-07T23:02:18.217Z,77.35
2019-04-07T23:04:52.646Z,79.19
2019-04-07T23:07:26.340Z,77.24
2019-04-07T23:10:00.458Z,78.30
2019-04-07T23:12:34.545Z,79.92
2019-04-07T23:15:09.258Z,78.83
2019-04-07T23:17:44.557Z,76.81
2019-04-07T23:20:19.878Z,76.36
2019-04-07T23:22:54.253Z,78.21
2019-04-07T23:25:29.044Z,77.60
2019-04-07T23:28:02.798Z,77.85
2019-04-07T23:30:35.227Z,77.91
2019-04-07T23:33:08.478Z,77.27
2019-04-07T23:35:41.617Z,77.21
2019-04-07T23:38:15.556Z,77.10
2019-04-07T23:40:49.333Z,77.22
2019-04-07T23:43:22.793Z,75.92
2019-04-07T23:45:55.973Z,75.85
2019-04-07T23:48:30.605Z,75.88
2019-04-07T23:51:04.371Z,77.25
2019-04-07T23:54:16.314Z,75.82
2019-04-07T23:56:49.912Z,75.90
2019-04-07T23:59:22.860Z,76.96
